Time;durP1;ratioP1;P1;durP2;ratioP2;P2;SDS_P1;SDS_P2;PMS_P1;PMS_P2;Temp;Humidity;BMP_temperature;BMP_pressure;BME280_temperature;BME280_humidity;BME280_pressure;Samples;Min_cycle;Max_cycle;Signal;HPM_P1;HPM_P2
2021/01/15 00:01:16;;;;;;;7.18;6.18;;;0.80;99.90;;;;;;5113590;28;20413;-73
2021/01/15 00:03:42;;;;;;;14.13;7.47;;;0.70;99.90;;;;;;5097441;28;20185;-72
2021/01/15 00:06:07;;;;;;;9.07;6.50;;;0.70;99.90;;;;;;5098807;28;20275;-73
2021/01/15 00:08:34;;;;;;;9.03;6.20;;;0.70;99.90;;;;;;5114164;28;20184;-72
2021/01/15 00:11:00;;;;;;;10.27;6.50;;;0.70;99.90;;;;;;5113974;28;20169;-73
2021/01/15 00:13:25;;;;;;;8.67;6.27;;;0.70;99.90;;;;;;5114128;28;20237;-72
2021/01/15 00:15:51;;;;;;;6.60;5.90;;;0.60;99.90;;;;;;5113738;28;20275;-73
2021/01/15 00:18:17;;;;;;;10.20;7.60;;;0.60;99.90;;;;;;5109490;28;20194;-72
2021/01/15 00:20:42;;;;;;;7.60;6.30;;;0.60;99.90;;;;;;5100501;28;20294;-73
2021/01/15 00:23:08;;;;;;;7.93;6.33;;;0.70;99.90;;;;;;5097576;28;20177;-72
2021/01/15 00:25:33;;;;;;;10.20;6.33;;;0.80;99.90;;;;;;5100652;27;20236;-73
2021/01/15 00:27:59;;;;;;;8.97;6.60;;;0.90;99.90;;;;;;5107786;28;20554;-73
2021/01/15 00:30:24;;;;;;;8.80;6.97;;;1.00;99.90;;;;;;5100865;28;20215;-73
2021/01/15 00:32:50;;;;;;;9.40;6.67;;;1.10;99.90;;;;;;5097383;28;20212;-73
2021/01/15 00:35:15;;;;;;;7.93;7.13;;;1.30;99.90;;;;;;5110932;28;20294;-73
2021/01/15 00:37:41;;;;;;;9.40;7.70;;;1.40;99.90;;;;;;5113695;28;20230;-72
2021/01/15 00:40:07;;;;;;;10.07;8.27;;;1.50;99.90;;;;;;5097308;28;20169;-72
2021/01/15 00:42:33;;;;;;;11.43;7.17;;;1.60;99.90;;;;;;5099127;28;20171;-72
2021/01/15 00:44:59;;;;;;;8.37;7.30;;;1.70;99.90;;;;;;5104023;28;20427;-72
2021/01/15 00:47:24;;;;;;;6.87;5.73;;;1.70;99.90;;;;;;5098630;28;20287;-72
2021/01/15 00:49:50;;;;;;;9.67;6.97;;;1.60;99.90;;;;;;5098776;28;20419;-73
2021/01/15 00:52:16;;;;;;;6.87;6.13;;;1.60;99.90;;;;;;5097001;27;20601;-73
2021/01/15 00:54:42;;;;;;;9.60;6.90;;;1.70;99.90;;;;;;5096528;28;20219;-73
2021/01/15 00:57:07;;;;;;;9.90;6.33;;;1.70;99.90;;;;;;5096660;28;20438;-73
2021/01/15 00:59:33;;;;;;;10.43;6.40;;;1.80;99.90;;;;;;5097734;28;20598;-73
2021/01/15 01:02:00;;;;;;;8.23;6.87;;;1.90;99.90;;;;;;5097324;28;20208;-73
2021/01/15 01:04:25;;;;;;;9.67;7.00;;;1.90;99.90;;;;;;5114724;28;20572;-73
2021/01/15 01:06:50;;;;;;;9.50;7.33;;;2.00;99.90;;;;;;5116766;28;20483;-73
2021/01/15 01:09:16;;;;;;;11.23;7.40;;;1.90;99.90;;;;;;5098275;28;20176;-73
2021/01/15 01:11:42;;;;;;;8.83;7.03;;;1.80;99.90;;;;;;5096353;28;20185;-73
2021/01/15 01:14:07;;;;;;;10.10;7.30;;;1.80;99.90;;;;;;5096195;28;20200;-73
2021/01/15 01:16:33;;;;;;;9.23;6.93;;;1.80;99.90;;;;;;5096109;28;20196;-73
2021/01/15 01:18:59;;;;;;;9.97;7.20;;;1.70;99.90;;;;;;5111599;28;20176;-73
2021/01/15 01:21:26;;;;;;;8.17;6.93;;;1.80;99.90;;;;;;5100921;27;20199;-73
2021/01/15 01:23:52;;;;;;;9.63;7.27;;;1.90;99.90;;;;;;5096121;28;20431;-73
2021/01/15 01:26:18;;;;;;;9.33;7.30;;;1.90;99.90;;;;;;5096059;28;20522;-73
2021/01/15 01:28:45;;;;;;;8.20;6.93;;;2.00;99.90;;;;;;5095844;28;20514;-73
2021/01/15 01:31:15;;;;;;;9.03;7.10;;;2.10;99.90;;;;;;5104124;28;20448;-73
2021/01/15 01:33:41;;;;;;;9.17;7.07;;;2.10;99.90;;;;;;5109824;28;20457;-73
2021/01/15 01:36:08;;;;;;;8.57;7.00;;;2.20;99.90;;;;;;5095426;28;20541;-73
2021/01/15 01:38:34;;;;;;;9.80;7.00;;;2.30;99.90;;;;;;5094469;28;20503;-73
2021/01/15 01:40:59;;;;;;;8.33;6.90;;;2.40;99.90;;;;;;5097015;28;20422;-73
2021/01/15 01:43:26;;;;;;;10.33;8.37;;;2.40;99.90;;;;;;5095762;28;20419;-73
2021/01/15 01:45:52;;;;;;;10.03;8.60;;;2.40;99.90;;;;;;5108602;28;20200;-72
2021/01/15 01:48:19;;;;;;;14.13;9.30;;;2.40;99.90;;;;;;5114636;28;20418;-73
2021/01/15 01:50:46;;;;;;;13.17;10.00;;;2.40;99.90;;;;;;5095592;28;20449;-73
2021/01/15 01:53:19;;;;;;;15.40;10.50;;;2.40;99.90;;;;;;5095788;27;20863;-73
2021/01/15 01:55:47;;;;;;;17.33;11.23;;;2.40;99.90;;;;;;5095583;28;20469;-73
2021/01/15 01:58:15;;;;;;;15.97;11.50;;;2.40;99.90;;;;;;5095752;28;20767;-73
2021/01/15 02:00:40;;;;;;;15.70;11.07;;;2.40;99.90;;;;;;5097770;28;20420;-73
2021/01/15 02:03:07;;;;;;;13.67;10.60;;;2.40;99.90;;;;;;5096232;28;20407;-73
2021/01/15 02:05:32;;;;;;;16.63;11.27;;;2.40;99.90;;;;;;5098574;28;20197;-73
2021/01/15 02:07:58;;;;;;;15.70;10.57;;;2.30;99.90;;;;;;5112316;28;20697;-73
2021/01/15 02:10:35;;;;;;;18.40;10.83;;;2.30;99.90;;;;;;5110814;28;20693;-73
2021/01/15 02:13:29;;;;;;;13.77;9.70;;;2.30;99.90;;;;;;5118173;27;20455;-73
2021/01/15 02:16:02;;;;;;;12.87;10.17;;;2.30;99.90;;;;;;5116846;28;20482;-73
2021/01/15 02:18:54;;;;;;;13.77;10.07;;;2.40;99.90;;;;;;5102985;28;20414;-73
2021/01/15 02:21:53;;;;;;;13.27;9.53;;;2.40;99.90;;;;;;5106902;28;20478;-73
2021/01/15 02:24:51;;;;;;;12.20;8.37;;;2.40;99.90;;;;;;5114706;28;20434;-73
2021/01/15 02:27:23;;;;;;;10.73;8.07;;;2.50;99.90;;;;;;5115340;28;20417;-73
2021/01/15 02:30:09;;;;;;;11.70;9.07;;;2.50;99.90;;;;;;5109187;28;20502;-73
2021/01/15 02:32:43;;;;;;;10.20;7.90;;;2.40;99.90;;;;;;5100674;27;20552;-73
2021/01/15 02:35:14;;;;;;;11.47;8.00;;;2.40;99.90;;;;;;5114868;28;20457;-73
2021/01/15 02:38:04;;;;;;;14.53;8.07;;;2.40;99.90;;;;;;5115063;27;20907;-73
2021/01/15 02:40:38;;;;;;;12.00;8.40;;;2.40;99.90;;;;;;5114695;28;20471;-73
2021/01/15 02:43:05;;;;;;;10.70;8.30;;;2.40;99.90;;;;;;5113150;28;20910;-73
2021/01/15 02:45:31;;;;;;;9.70;7.73;;;2.50;99.90;;;;;;5114342;28;20410;-73
2021/01/15 02:48:03;;;;;;;10.13;7.83;;;2.40;99.90;;;;;;5114563;28;20426;-72
2021/01/15 02:50:28;;;;;;;8.67;7.23;;;2.40;99.90;;;;;;5096229;28;20571;-71
2021/01/15 02:52:54;;;;;;;10.67;7.93;;;2.40;99.90;;;;;;5095913;28;20913;-73
2021/01/15 02:55:21;;;;;;;12.10;7.90;;;2.30;99.90;;;;;;5093906;27;20273;-73
2021/01/15 02:57:46;;;;;;;11.53;7.93;;;2.30;99.90;;;;;;5094376;28;20906;-72
2021/01/15 03:00:16;;;;;;;13.33;7.60;;;2.30;99.90;;;;;;5094131;28;20423;-72
2021/01/15 03:02:44;;;;;;;9.57;6.90;;;2.30;99.90;;;;;;5097744;28;20629;-73
2021/01/15 03:05:17;;;;;;;9.13;7.63;;;2.40;99.90;;;;;;5093622;27;20407;-72
2021/01/15 03:07:43;;;;;;;10.47;7.53;;;2.50;99.90;;;;;;5104133;28;20410;-72
2021/01/15 03:10:10;;;;;;;11.87;7.50;;;2.40;99.90;;;;;;5114592;28;20784;-73
2021/01/15 03:12:38;;;;;;;8.03;7.20;;;2.50;99.90;;;;;;5114150;28;20513;-72
2021/01/15 03:15:07;;;;;;;8.80;6.77;;;2.50;99.90;;;;;;5094857;28;20466;-73
2021/01/15 03:17:36;;;;;;;10.67;8.43;;;2.60;99.90;;;;;;5093693;28;20972;-72
2021/01/15 03:20:03;;;;;;;10.63;8.00;;;2.60;99.80;;;;;;5094135;28;20748;-72
2021/01/15 03:22:31;;;;;;;10.43;7.00;;;2.60;99.80;;;;;;5093758;28;20836;-72
2021/01/15 03:24:59;;;;;;;10.53;8.10;;;2.60;99.80;;;;;;5106197;28;20418;-72
2021/01/15 03:27:42;;;;;;;9.47;7.33;;;2.70;99.80;;;;;;5114023;28;20560;-72
2021/01/15 03:30:09;;;;;;;8.60;7.10;;;2.70;99.50;;;;;;5114221;27;20455;-72
2021/01/15 03:32:35;;;;;;;10.87;8.17;;;2.70;99.30;;;;;;5109129;28;20505;-72
2021/01/15 03:35:01;;;;;;;10.73;7.70;;;2.70;99.20;;;;;;5094939;28;20554;-72
2021/01/15 03:37:27;;;;;;;10.73;8.07;;;2.70;99.10;;;;;;5101663;28;20193;-73
2021/01/15 03:39:52;;;;;;;13.70;8.57;;;2.70;99.30;;;;;;5094002;28;20740;-72
2021/01/15 03:42:18;;;;;;;10.30;7.80;;;2.70;99.20;;;;;;5103467;28;20177;-72
2021/01/15 03:44:43;;;;;;;10.30;7.93;;;2.80;99.20;;;;;;5111759;28;20187;-73
2021/01/15 03:47:09;;;;;;;9.00;7.40;;;2.80;99.10;;;;;;5093826;28;20197;-72
2021/01/15 03:49:35;;;;;;;8.90;7.60;;;2.80;98.50;;;;;;5102244;28;20176;-73
2021/01/15 03:52:01;;;;;;;8.63;7.47;;;2.80;98.70;;;;;;5097138;28;20173;-72
2021/01/15 03:54:26;;;;;;;10.80;7.80;;;2.80;98.80;;;;;;5097393;28;20458;-72
2021/01/15 03:56:52;;;;;;;10.27;7.40;;;2.80;98.80;;;;;;5099080;28;20560;-73
2021/01/15 03:59:18;;;;;;;10.57;8.10;;;2.90;98.80;;;;;;5103678;27;20188;-72
2021/01/15 04:01:45;;;;;;;10.23;7.93;;;2.80;98.50;;;;;;5107825;28;20398;-73
2021/01/15 04:04:10;;;;;;;11.07;8.47;;;2.80;98.60;;;;;;5097176;28;20433;-73
2021/01/15 04:06:36;;;;;;;9.33;7.30;;;2.90;98.70;;;;;;5097661;28;20967;-72
2021/01/15 04:09:02;;;;;;;9.03;7.80;;;2.90;98.60;;;;;;5099204;28;20280;-71
2021/01/15 04:11:28;;;;;;;10.17;7.90;;;2.90;98.50;;;;;;5097785;28;20173;-72
2021/01/15 04:13:53;;;;;;;11.80;8.93;;;2.90;98.60;;;;;;5097201;28;20184;-71
2021/01/15 04:16:19;;;;;;;9.40;8.17;;;2.90;98.60;;;;;;5099392;28;20418;-72
2021/01/15 04:18:45;;;;;;;11.10;8.60;;;2.90;98.70;;;;;;5114069;27;20195;-72
2021/01/15 04:21:15;;;;;;;11.03;9.10;;;2.90;98.70;;;;;;5103864;28;20169;-71
2021/01/15 04:23:42;;;;;;;12.73;9.03;;;2.90;98.70;;;;;;5096100;28;20173;-72
2021/01/15 04:26:07;;;;;;;9.90;8.90;;;2.90;98.60;;;;;;5096543;28;20446;-72
2021/01/15 04:28:33;;;;;;;10.70;9.00;;;2.90;98.40;;;;;;5098489;28;20452;-72
2021/01/15 04:30:58;;;;;;;12.10;9.30;;;2.90;98.50;;;;;;5098901;28;20173;-72
2021/01/15 04:33:24;;;;;;;13.80;9.73;;;2.90;98.50;;;;;;5096867;27;20200;-72
2021/01/15 04:35:49;;;;;;;13.23;9.23;;;2.90;98.70;;;;;;5096394;28;20607;-72
2021/01/15 04:38:15;;;;;;;13.70;9.23;;;2.90;98.80;;;;;;5107685;28;20638;-72
2021/01/15 04:40:40;;;;;;;10.10;8.60;;;2.80;99.10;;;;;;5116861;28;20172;-72
2021/01/15 04:43:07;;;;;;;13.37;10.10;;;2.80;99.60;;;;;;5116151;28;20629;-72
2021/01/15 04:45:33;;;;;;;14.00;9.87;;;2.70;99.90;;;;;;5117139;27;20326;-72
2021/01/15 04:48:00;;;;;;;14.40;10.80;;;2.80;99.90;;;;;;5116785;28;20875;-72
2021/01/15 04:50:26;;;;;;;14.50;9.97;;;2.80;99.90;;;;;;5106425;28;20158;-72
2021/01/15 04:52:53;;;;;;;15.47;11.23;;;2.90;99.90;;;;;;5098005;28;20426;-72
2021/01/15 04:55:24;;;;;;;13.83;10.93;;;2.90;99.90;;;;;;5096430;28;20503;-72
2021/01/15 04:57:51;;;;;;;14.17;11.37;;;2.90;99.90;;;;;;5103685;28;20418;-72
2021/01/15 05:00:20;;;;;;;16.63;11.67;;;2.80;99.90;;;;;;5115578;27;20533;-72
2021/01/15 05:02:46;;;;;;;17.10;11.20;;;2.70;99.90;;;;;;5109247;27;20437;-72
2021/01/15 05:05:22;;;;;;;17.07;11.70;;;2.70;99.90;;;;;;5096483;28;20507;-72
2021/01/15 05:08:12;;;;;;;16.90;12.47;;;2.70;99.90;;;;;;5096486;28;20871;-72
2021/01/15 05:10:42;;;;;;;15.87;11.80;;;2.80;99.90;;;;;;5096276;28;20552;-72
2021/01/15 05:13:10;;;;;;;13.83;11.20;;;2.80;99.90;;;;;;5097632;28;20521;-72
2021/01/15 05:15:43;;;;;;;15.00;11.60;;;2.80;99.90;;;;;;5095680;28;20487;-72
2021/01/15 05:18:09;;;;;;;18.50;13.53;;;2.80;99.90;;;;;;5096513;28;20487;-71
2021/01/15 05:20:35;;;;;;;19.87;13.87;;;2.60;99.90;;;;;;5096221;27;20431;-71
2021/01/15 05:23:03;;;;;;;19.40;13.50;;;2.40;99.90;;;;;;5096951;28;20889;-73
2021/01/15 05:25:29;;;;;;;19.70;14.60;;;2.40;99.90;;;;;;5096796;28;20414;-71
2021/01/15 05:27:55;;;;;;;19.07;14.20;;;2.40;99.90;;;;;;5096769;28;20449;-71
2021/01/15 05:30:25;;;;;;;24.23;14.90;;;2.30;99.90;;;;;;5096688;28;20943;-72
2021/01/15 05:32:52;;;;;;;23.77;15.43;;;2.40;99.90;;;;;;5096259;27;20157;-73
2021/01/15 05:35:19;;;;;;;19.60;15.20;;;2.40;99.90;;;;;;5095514;28;20466;-72
2021/01/15 05:37:58;;;;;;;22.80;15.33;;;2.40;99.90;;;;;;5097495;28;20818;-72
2021/01/15 05:40:38;;;;;;;21.90;15.43;;;2.50;99.90;;;;;;5096734;28;20452;-73
2021/01/15 05:43:04;;;;;;;23.77;15.27;;;2.40;99.90;;;;;;5104129;28;20973;-72
2021/01/15 05:45:30;;;;;;;23.90;14.83;;;2.50;99.90;;;;;;5118037;27;20456;-72
2021/01/15 05:47:55;;;;;;;25.07;16.20;;;2.40;99.90;;;;;;5131327;28;20426;-72
2021/01/15 05:50:21;;;;;;;24.70;16.20;;;2.40;99.90;;;;;;5109179;28;20173;-72
2021/01/15 05:52:57;;;;;;;23.33;16.53;;;2.40;99.90;;;;;;5120395;28;20183;-73
2021/01/15 05:55:27;;;;;;;27.53;16.70;;;2.50;99.90;;;;;;5133141;28;20195;-73
2021/01/15 05:57:52;;;;;;;22.83;16.03;;;2.50;99.90;;;;;;5118810;27;20439;-72
2021/01/15 06:00:27;;;;;;;26.90;16.37;;;2.40;99.90;;;;;;5124845;27;20481;-73
2021/01/15 06:02:53;;;;;;;23.20;17.27;;;2.50;99.90;;;;;;5126086;27;20162;-72
2021/01/15 06:05:21;;;;;;;28.07;16.37;;;2.40;99.90;;;;;;5114757;27;20418;-73
2021/01/15 06:07:56;;;;;;;27.37;18.10;;;2.40;99.90;;;;;;5123696;27;20433;-72
2021/01/15 06:10:22;;;;;;;32.53;18.93;;;2.40;99.90;;;;;;5103861;27;20414;-73
2021/01/15 06:12:48;;;;;;;23.47;15.97;;;2.40;99.90;;;;;;5122687;27;20434;-73
2021/01/15 06:15:15;;;;;;;25.60;16.50;;;2.40;99.90;;;;;;5112658;28;20533;-73
2021/01/15 06:17:41;;;;;;;29.37;17.63;;;2.50;99.90;;;;;;5115518;27;20254;-73
2021/01/15 06:20:07;;;;;;;28.10;17.63;;;2.50;99.90;;;;;;5124965;27;20448;-73
2021/01/15 06:22:49;;;;;;;30.53;18.30;;;2.50;99.90;;;;;;5121300;27;20177;-73
2021/01/15 06:25:31;;;;;;;25.70;17.70;;;2.40;99.90;;;;;;5121289;27;20805;-73
2021/01/15 06:28:02;;;;;;;32.10;17.67;;;2.40;99.90;;;;;;5123153;27;20417;-71
2021/01/15 06:30:32;;;;;;;28.83;17.83;;;2.50;99.90;;;;;;5115128;27;20505;-73
2021/01/15 06:33:14;;;;;;;26.73;16.57;;;2.50;99.90;;;;;;5103459;27;20528;-73
2021/01/15 06:35:43;;;;;;;25.83;16.83;;;2.50;99.90;;;;;;5117903;27;20457;-73
2021/01/15 06:38:10;;;;;;;29.47;18.07;;;2.60;99.90;;;;;;5129167;27;20423;-73
2021/01/15 06:40:47;;;;;;;27.10;17.27;;;2.40;99.90;;;;;;5112508;27;20429;-71
2021/01/15 06:43:27;;;;;;;30.90;18.30;;;2.40;99.90;;;;;;5120476;27;20965;-72
2021/01/15 06:45:57;;;;;;;27.63;18.40;;;2.40;99.90;;;;;;5115614;27;20441;-72
2021/01/15 06:48:33;;;;;;;28.27;18.67;;;2.40;99.90;;;;;;5126950;27;20409;-74
2021/01/15 06:50:59;;;;;;;26.03;17.53;;;2.50;99.90;;;;;;5100720;27;20481;-72
2021/01/15 06:53:38;;;;;;;30.37;18.33;;;2.30;99.90;;;;;;5127617;27;20420;-72
2021/01/15 06:56:05;;;;;;;30.10;19.90;;;2.30;99.90;;;;;;5120816;27;20458;-73
2021/01/15 06:58:39;;;;;;;30.33;19.00;;;2.40;99.90;;;;;;5122230;27;20422;-73
2021/01/15 07:01:25;;;;;;;27.30;18.43;;;2.40;99.90;;;;;;5114311;28;20911;-73
2021/01/15 07:03:54;;;;;;;32.43;18.70;;;2.30;99.90;;;;;;5116412;27;20440;-73
2021/01/15 07:06:27;;;;;;;31.63;20.17;;;2.40;99.90;;;;;;5134756;27;20444;-73
2021/01/15 07:08:54;;;;;;;31.67;19.57;;;2.30;99.90;;;;;;5117704;27;20402;-73
2021/01/15 07:11:23;;;;;;;32.40;21.83;;;2.30;99.90;;;;;;5127545;27;20429;-73
2021/01/15 07:13:56;;;;;;;30.90;19.87;;;2.30;99.90;;;;;;5124237;27;20417;-72
2021/01/15 07:16:30;;;;;;;35.00;22.00;;;2.20;99.90;;;;;;5119863;27;20859;-72
2021/01/15 07:19:04;;;;;;;31.93;21.13;;;2.30;99.90;;;;;;5110452;27;20920;-72
2021/01/15 07:21:34;;;;;;;30.63;20.57;;;2.30;99.90;;;;;;5126125;27;20413;-72
2021/01/15 07:24:09;;;;;;;35.10;21.23;;;2.40;99.90;;;;;;5102457;27;20927;-74
2021/01/15 07:26:41;;;;;;;37.57;22.43;;;2.50;99.90;;;;;;5128159;27;20429;-72
2021/01/15 07:29:09;;;;;;;33.30;22.30;;;2.50;99.90;;;;;;5119322;27;20407;-72
2021/01/15 07:31:39;;;;;;;36.37;20.80;;;2.40;99.90;;;;;;5124029;27;20413;-73
2021/01/15 07:34:12;;;;;;;34.70;21.27;;;2.30;99.90;;;;;;5114441;28;20575;-74
2021/01/15 07:36:40;;;;;;;36.23;20.43;;;2.40;99.90;;;;;;5116125;27;20486;-72
2021/01/15 07:39:14;;;;;;;33.07;20.20;;;2.40;99.90;;;;;;5129437;27;20739;-73
2021/01/15 07:41:41;;;;;;;29.83;19.77;;;2.50;99.90;;;;;;5113244;28;20421;-72
2021/01/15 07:44:27;;;;;;;30.87;19.67;;;2.50;99.90;;;;;;5112909;28;20462;-72
2021/01/15 07:46:59;;;;;;;33.53;20.70;;;2.60;99.90;;;;;;5123043;27;20440;-73
2021/01/15 07:49:41;;;;;;;29.77;19.07;;;2.60;99.90;;;;;;5120122;27;20444;-73
2021/01/15 07:52:10;;;;;;;32.50;20.17;;;2.50;99.90;;;;;;5123411;27;20430;-73
2021/01/15 07:55:03;;;;;;;34.87;20.93;;;2.50;99.90;;;;;;5125601;28;20540;-73
2021/01/15 07:57:31;;;;;;;34.47;20.00;;;2.50;99.90;;;;;;5109845;28;20511;-73
2021/01/15 07:59:57;;;;;;;30.97;19.20;;;2.60;99.90;;;;;;5110237;28;20764;-73
2021/01/15 08:02:23;;;;;;;29.57;19.20;;;2.70;99.90;;;;;;5121604;28;20440;-73
2021/01/15 08:04:49;;;;;;;35.20;20.93;;;2.70;99.90;;;;;;5112886;27;20432;-73
2021/01/15 08:07:34;;;;;;;34.87;21.37;;;2.70;99.90;;;;;;5109421;28;20662;-73
2021/01/15 08:09:59;;;;;;;36.73;21.60;;;2.70;99.90;;;;;;5121516;27;20408;-73
2021/01/15 08:12:25;;;;;;;30.73;20.80;;;2.70;99.90;;;;;;5130489;28;20454;-71
2021/01/15 08:14:50;;;;;;;33.57;19.17;;;2.70;99.90;;;;;;5114009;27;20199;-74
2021/01/15 08:17:26;;;;;;;35.70;21.27;;;2.50;99.90;;;;;;5114615;28;20195;-74
2021/01/15 08:19:51;;;;;;;35.13;20.00;;;2.50;99.90;;;;;;5133853;27;20179;-74
2021/01/15 08:22:18;;;;;;;31.23;19.47;;;2.60;99.90;;;;;;5118119;27;20807;-73
2021/01/15 08:24:48;;;;;;;34.50;19.80;;;2.70;99.90;;;;;;5122874;28;20186;-73
2021/01/15 08:27:22;;;;;;;30.13;19.03;;;2.60;99.90;;;;;;5125175;27;20448;-73
2021/01/15 08:29:49;;;;;;;31.27;21.07;;;2.60;99.90;;;;;;5122755;28;20417;-73
2021/01/15 08:32:16;;;;;;;33.53;20.87;;;2.60;99.90;;;;;;5118492;27;20438;-73
2021/01/15 08:34:44;;;;;;;35.70;20.77;;;2.70;99.90;;;;;;5122240;27;20460;-73
2021/01/15 08:37:11;;;;;;;35.63;20.43;;;2.70;99.90;;;;;;5117029;28;20421;-73
2021/01/15 08:39:47;;;;;;;29.70;20.53;;;2.70;99.90;;;;;;5116576;27;20771;-73
2021/01/15 08:42:14;;;;;;;35.27;21.30;;;2.80;99.90;;;;;;5120996;27;20899;-73
2021/01/15 08:44:41;;;;;;;33.47;19.57;;;2.80;99.90;;;;;;5116147;28;20409;-73
2021/01/15 08:47:11;;;;;;;31.70;18.73;;;2.80;99.90;;;;;;5114093;28;20437;-73
2021/01/15 08:49:38;;;;;;;22.83;16.93;;;2.60;99.90;;;;;;5114032;27;20428;-73
2021/01/15 08:52:05;;;;;;;28.97;18.77;;;2.50;99.90;;;;;;5109058;27;20425;-73
2021/01/15 08:54:32;;;;;;;28.10;17.77;;;2.50;99.90;;;;;;5130528;27;20492;-74
2021/01/15 08:57:00;;;;;;;29.63;18.70;;;2.60;99.90;;;;;;5119246;27;20917;-73
2021/01/15 08:59:30;;;;;;;29.10;17.07;;;2.70;99.90;;;;;;5126860;27;20429;-73
2021/01/15 09:02:01;;;;;;;34.30;19.40;;;2.70;99.90;;;;;;5119641;27;20409;-73
2021/01/15 09:04:32;;;;;;;33.00;20.57;;;2.60;99.90;;;;;;5137037;27;20921;-73
2021/01/15 09:07:00;;;;;;;30.47;18.37;;;2.50;99.90;;;;;;5107150;27;20422;-73
2021/01/15 09:09:28;;;;;;;32.50;19.13;;;2.60;99.90;;;;;;5120900;27;20426;-73
2021/01/15 09:11:54;;;;;;;34.90;19.77;;;2.50;99.90;;;;;;5116915;27;20413;-73
2021/01/15 09:14:22;;;;;;;41.40;21.60;;;2.20;99.90;;;;;;5114828;27;20460;-74
2021/01/15 09:16:49;;;;;;;35.00;20.13;;;2.20;99.90;;;;;;5124124;27;20444;-73
2021/01/15 09:19:15;;;;;;;38.30;21.20;;;2.20;99.90;;;;;;5129012;27;20771;-73
2021/01/15 09:21:45;;;;;;;34.03;20.40;;;2.30;99.90;;;;;;5113256;28;20432;-73
2021/01/15 09:24:11;;;;;;;40.30;22.57;;;2.40;99.90;;;;;;5126652;28;20416;-73
2021/01/15 09:26:36;;;;;;;41.90;23.00;;;2.60;99.90;;;;;;5131605;27;20473;-73
2021/01/15 09:29:02;;;;;;;38.23;21.60;;;2.70;99.90;;;;;;5121039;28;20172;-73
2021/01/15 09:31:27;;;;;;;44.10;23.23;;;2.70;99.90;;;;;;5119068;28;20559;-73
2021/01/15 09:33:53;;;;;;;40.27;22.63;;;2.60;99.90;;;;;;5137467;27;20185;-74
2021/01/15 09:36:26;;;;;;;40.07;22.73;;;2.50;99.90;;;;;;5149868;27;20238;-72
2021/01/15 09:38:57;;;;;;;38.93;22.07;;;2.50;99.90;;;;;;5141762;27;20196;-72
2021/01/15 09:41:23;;;;;;;33.97;20.50;;;2.40;99.90;;;;;;5114087;28;20988;-72
2021/01/15 09:43:55;;;;;;;35.40;21.23;;;2.40;99.90;;;;;;5114788;28;20551;-72
2021/01/15 09:46:26;;;;;;;34.00;21.00;;;2.40;99.90;;;;;;5115808;27;21014;-71
2021/01/15 09:48:53;;;;;;;35.23;21.67;;;2.40;99.90;;;;;;5116342;28;20406;-72
2021/01/15 09:51:23;;;;;;;32.20;21.27;;;2.40;99.90;;;;;;5117888;28;20413;-72
2021/01/15 09:53:49;;;;;;;36.30;21.13;;;2.40;99.90;;;;;;5099277;28;20411;-72
2021/01/15 09:56:22;;;;;;;36.20;20.03;;;2.50;99.90;;;;;;5096705;28;20596;-72
2021/01/15 09:58:47;;;;;;;33.20;20.43;;;2.60;99.90;;;;;;5096960;27;20212;-72
2021/01/15 10:01:13;;;;;;;37.40;22.13;;;2.80;99.90;;;;;;5118759;27;20434;-73
2021/01/15 10:03:38;;;;;;;33.50;21.57;;;2.90;99.90;;;;;;5136527;27;20160;-74
2021/01/15 10:06:04;;;;;;;30.63;20.57;;;2.80;99.90;;;;;;5115697;28;20203;-73
2021/01/15 10:08:29;;;;;;;32.03;20.10;;;2.60;99.90;;;;;;5106203;28;20180;-73
2021/01/15 10:10:55;;;;;;;27.07;18.13;;;2.60;99.90;;;;;;5103676;27;20189;-73
2021/01/15 10:13:21;;;;;;;29.90;19.47;;;2.80;99.90;;;;;;5115444;28;20187;-73
2021/01/15 10:15:46;;;;;;;30.90;17.90;;;3.00;99.90;;;;;;5114936;28;20301;-73
2021/01/15 10:18:11;;;;;;;28.53;18.00;;;3.00;99.90;;;;;;5113992;28;20243;-72
2021/01/15 10:20:44;;;;;;;26.53;17.17;;;3.10;99.90;;;;;;5116073;28;20171;-73
2021/01/15 10:23:09;;;;;;;22.77;15.90;;;3.20;99.90;;;;;;5115711;28;20176;-73
2021/01/15 10:25:35;;;;;;;29.80;18.60;;;3.20;99.90;;;;;;5114939;27;20430;-73
2021/01/15 10:28:01;;;;;;;27.17;17.07;;;3.30;99.90;;;;;;5111767;27;20194;-73
2021/01/15 10:30:26;;;;;;;22.10;14.63;;;3.40;99.90;;;;;;5112675;27;20195;-73
2021/01/15 10:32:52;;;;;;;22.20;15.90;;;3.50;99.90;;;;;;5119060;27;20177;-74
2021/01/15 10:35:18;;;;;;;21.20;15.93;;;3.60;99.90;;;;;;5128492;27;20274;-74
2021/01/15 10:37:44;;;;;;;21.77;15.80;;;3.60;99.90;;;;;;5118324;27;20168;-74
2021/01/15 10:40:10;;;;;;;23.60;14.70;;;3.50;99.90;;;;;;5117499;27;20410;-72
2021/01/15 10:42:37;;;;;;;19.97;14.20;;;3.50;99.90;;;;;;5114575;28;20168;-73
2021/01/15 10:45:04;;;;;;;22.27;15.00;;;3.40;99.90;;;;;;5113832;27;20833;-73
2021/01/15 10:47:29;;;;;;;20.63;14.87;;;3.20;99.90;;;;;;5094970;28;20503;-73
2021/01/15 10:49:55;;;;;;;20.50;13.40;;;3.30;99.90;;;;;;5109567;27;20420;-74
2021/01/15 10:52:20;;;;;;;21.00;13.30;;;3.30;99.90;;;;;;5110897;27;20530;-74
2021/01/15 10:54:46;;;;;;;18.83;13.47;;;3.40;99.90;;;;;;5114504;28;20239;-73
2021/01/15 10:57:11;;;;;;;20.80;12.90;;;3.50;99.90;;;;;;5114139;28;20730;-73
2021/01/15 10:59:37;;;;;;;20.37;13.73;;;3.60;99.90;;;;;;5123943;27;20187;-74
2021/01/15 11:02:02;;;;;;;22.57;13.30;;;3.40;99.90;;;;;;5111930;27;20556;-73
2021/01/15 11:04:28;;;;;;;15.93;12.90;;;3.20;99.90;;;;;;5102663;28;20550;-73
2021/01/15 11:06:55;;;;;;;19.30;13.70;;;3.10;99.90;;;;;;5104514;27;20231;-73
2021/01/15 11:09:23;;;;;;;21.23;11.57;;;3.20;99.90;;;;;;5112661;28;20412;-73
2021/01/15 11:11:50;;;;;;;18.00;12.80;;;3.10;99.90;;;;;;5112016;28;21032;-73
2021/01/15 11:14:19;;;;;;;18.90;13.13;;;3.10;99.90;;;;;;5113893;28;20544;-73
2021/01/15 11:16:46;;;;;;;17.67;12.60;;;3.20;99.90;;;;;;5113592;27;20954;-73
2021/01/15 11:19:12;;;;;;;18.80;12.40;;;3.30;99.90;;;;;;5115200;27;20877;-73
2021/01/15 11:21:38;;;;;;;24.17;12.77;;;3.30;99.90;;;;;;5126767;27;20419;-73
2021/01/15 11:24:04;;;;;;;18.00;11.37;;;3.30;99.90;;;;;;5107161;27;20501;-73
2021/01/15 11:26:31;;;;;;;17.53;12.07;;;3.40;99.90;;;;;;5113199;28;20209;-73
2021/01/15 11:29:02;;;;;;;20.57;11.77;;;3.60;99.90;;;;;;5113962;28;20493;-73
2021/01/15 11:31:28;;;;;;;20.10;11.40;;;3.50;99.90;;;;;;5114335;27;20430;-73
2021/01/15 11:33:54;;;;;;;15.47;10.40;;;3.60;99.90;;;;;;5102917;27;20457;-73
2021/01/15 11:36:21;;;;;;;17.77;12.23;;;3.70;99.90;;;;;;5102664;27;20459;-73
2021/01/15 11:38:47;;;;;;;16.90;12.03;;;3.80;99.90;;;;;;5113471;28;20920;-74
2021/01/15 11:41:13;;;;;;;16.53;10.70;;;3.80;99.90;;;;;;5113634;28;20481;-73
2021/01/15 11:43:40;;;;;;;14.97;10.07;;;3.80;99.90;;;;;;5109213;28;20544;-73
2021/01/15 11:46:06;;;;;;;15.77;11.50;;;4.00;99.90;;;;;;5115978;27;20430;-73
2021/01/15 11:48:32;;;;;;;13.97;10.13;;;4.10;99.90;;;;;;5132915;27;20430;-73
2021/01/15 11:50:59;;;;;;;14.90;9.93;;;4.10;99.90;;;;;;5114560;27;20414;-73
2021/01/15 11:53:25;;;;;;;13.93;9.20;;;3.80;99.90;;;;;;5119203;28;20450;-74
2021/01/15 11:55:52;;;;;;;12.13;9.13;;;3.80;99.90;;;;;;5115981;27;20494;-72
2021/01/15 11:58:19;;;;;;;11.07;8.93;;;3.80;99.90;;;;;;5133747;27;20797;-73
2021/01/15 12:00:44;;;;;;;13.00;9.33;;;3.70;99.90;;;;;;5117563;27;20957;-72
2021/01/15 12:03:10;;;;;;;12.70;9.00;;;3.80;99.90;;;;;;5123807;27;20423;-74
2021/01/15 12:05:42;;;;;;;12.30;10.00;;;3.80;99.90;;;;;;5117686;27;20210;-74
2021/01/15 12:08:08;;;;;;;15.00;10.00;;;3.70;99.90;;;;;;5116351;28;20763;-73
2021/01/15 12:10:34;;;;;;;14.87;10.33;;;3.70;99.90;;;;;;5118458;27;20480;-73
2021/01/15 12:13:00;;;;;;;15.30;10.17;;;3.80;99.90;;;;;;5116188;27;20585;-74
2021/01/15 12:15:26;;;;;;;14.97;9.40;;;3.90;99.90;;;;;;5112158;27;20465;-72
2021/01/15 12:17:52;;;;;;;15.00;10.03;;;3.90;99.80;;;;;;5117291;28;20178;-74
2021/01/15 12:20:18;;;;;;;14.47;9.93;;;4.00;99.90;;;;;;5119222;27;20399;-72
2021/01/15 12:22:44;;;;;;;14.37;9.87;;;4.10;99.70;;;;;;5116457;27;20578;-74
2021/01/15 12:25:10;;;;;;;11.53;9.77;;;4.00;99.90;;;;;;5117211;27;20410;-72
2021/01/15 12:27:36;;;;;;;12.57;9.13;;;4.10;99.60;;;;;;5127306;27;20558;-73
2021/01/15 12:30:04;;;;;;;16.30;10.40;;;4.10;99.50;;;;;;5123447;27;20426;-72
2021/01/15 12:32:30;;;;;;;14.00;10.40;;;4.10;99.40;;;;;;5135829;27;20181;-73
2021/01/15 12:34:55;;;;;;;14.63;10.97;;;4.10;99.30;;;;;;5127281;27;20511;-73
2021/01/15 12:37:27;;;;;;;14.30;10.37;;;3.90;99.30;;;;;;5128610;27;20653;-73
2021/01/15 12:39:54;;;;;;;11.80;9.47;;;3.80;99.50;;;;;;5133962;27;20185;-73
2021/01/15 12:42:20;;;;;;;15.80;10.50;;;3.60;99.80;;;;;;5124508;27;20402;-73
2021/01/15 12:44:45;;;;;;;12.40;9.80;;;3.50;99.90;;;;;;5134284;27;20411;-73
2021/01/15 12:47:11;;;;;;;14.70;10.23;;;3.30;99.90;;;;;;5132380;27;20205;-73
2021/01/15 12:49:37;;;;;;;13.60;11.00;;;3.30;99.90;;;;;;5108482;27;20178;-73